createdAt,value
2023-01-11T00:00:14.497Z,50.85
2023-01-11T00:01:14.484Z,50.84
2023-01-11T00:02:14.500Z,49.60
2023-01-11T00:03:14.464Z,59.47
2023-01-11T00:04:14.508Z,52.70
2023-01-11T00:05:14.486Z,48.27
2023-01-11T00:06:14.459Z,54.75
2023-01-11T00:07:14.449Z,55.46
2023-01-11T00:08:14.410Z,56.84
2023-01-11T00:09:14.404Z,55.13
2023-01-11T00:10:14.403Z,51.66
2023-01-11T00:11:14.396Z,52.83
2023-01-11T00:12:14.429Z,53.30
2023-01-11T00:13:14.372Z,53.68
2023-01-11T00:14:14.348Z,60.84
2023-01-11T00:15:14.352Z,60.47
2023-01-11T00:16:14.422Z,47.77
2023-01-11T00:17:14.408Z,48.98
2023-01-11T00:18:14.328Z,48.87
2023-01-11T00:19:14.321Z,47.44
2023-01-11T00:20:14.308Z,48.98
2023-01-11T00:21:14.282Z,49.91
2023-01-11T00:22:14.279Z,46.08
2023-01-11T00:23:17.361Z,49.03
2023-01-11T00:24:14.276Z,49.13
2023-01-11T00:25:14.248Z,45.47
2023-01-11T00:26:14.245Z,45.84
2023-01-11T00:27:14.234Z,46.32
2023-01-11T00:28:14.249Z,49.59
2023-01-11T00:29:14.225Z,45.49
2023-01-11T00:30:14.543Z,46.19
2023-01-11T00:31:14.283Z,52.61
2023-01-11T00:32:14.192Z,50.33
2023-01-11T00:33:14.213Z,46.95
2023-01-11T00:34:14.166Z,48.61
2023-01-11T00:35:14.195Z,51.12
2023-01-11T00:36:14.149Z,48.00
2023-01-11T00:37:14.142Z,47.65
2023-01-11T00:38:14.133Z,64.28
2023-01-11T00:39:14.136Z,50.79
2023-01-11T00:40:14.163Z,48.11
2023-01-11T00:41:14.126Z,49.92
2023-01-11T00:42:14.105Z,52.97
2023-01-11T00:43:14.072Z,51.82
2023-01-11T00:44:14.108Z,52.21
2023-01-11T00:45:14.070Z,51.85
2023-01-11T00:46:14.117Z,60.58
2023-01-11T00:47:14.047Z,52.29
2023-01-11T00:48:14.039Z,50.56
2023-01-11T00:49:14.051Z,49.27
2023-01-11T00:50:14.019Z,47.25
2023-01-11T00:51:13.991Z,57.60
2023-01-11T00:52:13.986Z,65.63
2023-01-11T00:53:13.993Z,48.00
2023-01-11T00:54:13.971Z,47.42
2023-01-11T00:55:14.004Z,50.77
2023-01-11T00:56:13.956Z,50.78
2023-01-11T00:57:13.949Z,46.92
2023-01-11T00:58:13.935Z,48.30
2023-01-11T00:59:13.994Z,61.66
2023-01-11T01:00:13.929Z,47.54
2023-01-11T01:01:13.920Z,45.54
2023-01-11T01:02:13.920Z,48.66
2023-01-11T01:03:13.926Z,61.18
2023-01-11T01:04:13.905Z,51.40
2023-01-11T01:05:13.879Z,50.55
2023-01-11T01:06:13.860Z,50.22
2023-01-11T01:07:13.880Z,49.67
2023-01-11T01:08:13.875Z,57.59
2023-01-11T01:09:13.837Z,57.84
2023-01-11T01:10:13.850Z,49.86
2023-01-11T01:11:13.811Z,50.78
2023-01-11T01:12:13.830Z,49.11
2023-01-11T01:13:13.817Z,50.21
2023-01-11T01:14:13.822Z,47.58
2023-01-11T01:15:13.792Z,45.38
2023-01-11T01:16:13.795Z,52.71
2023-01-11T01:17:13.763Z,51.73
2023-01-11T01:18:13.765Z,45.91
2023-01-11T01:19:13.752Z,50.98
2023-01-11T01:20:13.770Z,50.54
2023-01-11T01:21:13.725Z,48.50
2023-01-11T01:22:13.717Z,45.55
2023-01-11T01:23:13.692Z,44.79
2023-01-11T01:24:13.713Z,49.69
2023-01-11T01:25:13.670Z,50.45
2023-01-11T01:26:13.650Z,45.87
2023-01-11T01:27:13.659Z,54.78
2023-01-11T01:28:13.653Z,50.42
2023-01-11T01:29:13.643Z,51.19
2023-01-11T01:30:13.643Z,47.42
2023-01-11T01:31:13.678Z,47.55
2023-01-11T01:32:13.604Z,45.32
2023-01-11T01:33:45.473Z,45.40
2023-01-11T01:34:13.570Z,49.91
2023-01-11T01:35:13.565Z,55.96
2023-01-11T01:36:13.540Z,59.59
2023-01-11T01:37:13.546Z,49.13
2023-01-11T01:38:13.530Z,45.95
2023-01-11T01:39:13.517Z,50.11
2023-01-11T01:40:13.508Z,53.71
2023-01-11T01:41:13.489Z,51.61
2023-01-11T01:42:13.500Z,65.83
2023-01-11T01:43:13.469Z,49.02
2023-01-11T01:44:13.464Z,47.23
2023-01-11T01:45:13.472Z,49.17
2023-01-11T01:46:13.494Z,61.24
2023-01-11T01:47:13.422Z,53.87
2023-01-11T01:48:13.424Z,48.80
2023-01-11T01:49:13.411Z,58.12
2023-01-11T01:50:13.421Z,56.68
2023-01-11T01:51:13.416Z,55.69
2023-01-11T01:52:13.425Z,51.59
2023-01-11T01:53:13.375Z,49.57
2023-01-11T01:54:13.355Z,46.50
2023-01-11T01:55:13.355Z,55.84
2023-01-11T01:56:13.353Z,59.54
2023-01-11T01:57:13.364Z,51.55
2023-01-11T01:58:13.357Z,50.16
2023-01-11T01:59:13.339Z,54.84
2023-01-11T02:00:13.298Z,57.28
2023-01-11T02:01:13.293Z,54.10
2023-01-11T02:02:13.341Z,53.39
2023-01-11T02:03:13.318Z,52.01
2023-01-11T02:04:13.279Z,47.22
2023-01-11T02:05:13.249Z,56.32
2023-01-11T02:06:13.234Z,62.32
2023-01-11T02:07:13.231Z,45.70
2023-01-11T02:08:13.234Z,50.46
2023-01-11T02:09:13.220Z,49.23
2023-01-11T02:10:13.274Z,48.43
2023-01-11T02:11:13.197Z,45.02
2023-01-11T02:12:13.185Z,51.56
2023-01-11T02:13:13.182Z,52.73
2023-01-11T02:14:13.178Z,51.20
2023-01-11T02:15:13.193Z,52.13
2023-01-11T02:16:13.187Z,51.57
2023-01-11T02:17:13.148Z,51.29
2023-01-11T02:18:13.127Z,48.26
2023-01-11T02:19:13.124Z,46.68
2023-01-11T02:20:13.127Z,67.25
2023-01-11T02:21:13.122Z,47.07
2023-01-11T02:22:13.104Z,48.15
2023-01-11T02:23:13.084Z,51.34
2023-01-11T02:24:13.084Z,45.82
2023-01-11T02:25:13.087Z,49.48
2023-01-11T02:26:13.060Z,49.63
2023-01-11T02:27:13.049Z,55.71
2023-01-11T02:28:13.041Z,55.90
2023-01-11T02:29:13.033Z,47.61
2023-01-11T02:30:13.018Z,45.91
2023-01-11T02:31:13.070Z,55.43
2023-01-11T02:32:12.985Z,57.88
2023-01-11T02:33:12.976Z,46.69
2023-01-11T02:34:12.971Z,53.68
2023-01-11T02:35:12.990Z,52.85
2023-01-11T02:36:12.961Z,53.52
2023-01-11T02:37:12.955Z,60.84
2023-01-11T02:38:12.930Z,50.90
2023-01-11T02:39:12.934Z,50.04
2023-01-11T02:40:12.960Z,48.50
2023-01-11T02:41:12.908Z,51.02
2023-01-11T02:42:12.912Z,52.11
2023-01-11T02:43:12.879Z,50.77
2023-01-11T02:44:12.879Z,52.51
2023-01-11T02:45:12.870Z,51.22
2023-01-11T02:46:12.898Z,53.91
2023-01-11T02:47:12.863Z,51.24
2023-01-11T02:48:12.858Z,52.23
2023-01-11T02:49:12.817Z,49.16
2023-01-11T02:50:12.819Z,51.24
2023-01-11T02:51:12.814Z,62.17
2023-01-11T02:52:12.831Z,48.98
2023-01-11T02:53:12.788Z,50.65
2023-01-11T02:54:12.787Z,62.77
2023-01-11T02:55:12.774Z,53.09
2023-01-11T02:56:12.773Z,52.82
2023-01-11T02:57:12.773Z,54.93
2023-01-11T02:58:12.764Z,59.89
2023-01-11T02:59:12.754Z,56.11
2023-01-11T03:00:12.721Z,63.32
2023-01-11T03:01:12.719Z,50.28
2023-01-11T03:02:12.724Z,48.42
2023-01-11T03:03:12.724Z,50.40
2023-01-11T03:04:12.685Z,63.12
2023-01-11T03:05:12.711Z,57.67
2023-01-11T03:06:12.675Z,60.42
2023-01-11T03:07:12.691Z,59.30
2023-01-11T03:08:12.654Z,49.99
2023-01-11T03:09:12.637Z,48.25
2023-01-11T03:10:12.625Z,46.06
2023-01-11T03:11:12.644Z,50.03
2023-01-11T03:12:12.612Z,48.06
2023-01-11T03:13:12.595Z,50.52
2023-01-11T03:14:12.597Z,49.78
2023-01-11T03:15:12.584Z,47.56
2023-01-11T03:16:12.667Z,47.59
2023-01-11T03:17:12.580Z,47.52
2023-01-11T03:18:12.571Z,51.15
2023-01-11T03:19:12.553Z,48.41
2023-01-11T03:20:12.543Z,57.30
2023-01-11T03:21:12.530Z,49.66
2023-01-11T03:22:12.502Z,55.15
2023-01-11T03:23:13.528Z,59.32
2023-01-11T03:24:12.493Z,61.73
2023-01-11T03:25:12.482Z,49.03
2023-01-11T03:26:12.470Z,63.49
2023-01-11T03:27:12.518Z,46.97
2023-01-11T03:28:12.479Z,66.29
2023-01-11T03:29:12.449Z,51.72
2023-01-11T03:30:12.428Z,58.86
2023-01-11T03:31:12.540Z,58.58
2023-01-11T03:32:12.442Z,51.39
2023-01-11T03:33:12.408Z,53.66
2023-01-11T03:34:12.391Z,58.20
2023-01-11T03:35:12.396Z,52.37
2023-01-11T03:36:12.400Z,47.37
2023-01-11T03:37:12.386Z,51.99
2023-01-11T03:38:12.358Z,52.41
2023-01-11T03:39:12.357Z,62.47
2023-01-11T03:40:12.336Z,60.26
2023-01-11T03:41:12.345Z,56.98
2023-01-11T03:42:12.337Z,55.27
2023-01-11T03:43:12.335Z,63.16
2023-01-11T03:44:12.318Z,50.57
2023-01-11T03:45:12.279Z,52.31
2023-01-11T03:46:12.306Z,54.87
2023-01-11T03:47:12.271Z,50.77
2023-01-11T03:48:12.265Z,56.38
2023-01-11T03:49:12.278Z,55.65
2023-01-11T03:50:12.247Z,54.16
2023-01-11T03:51:12.246Z,51.84
2023-01-11T03:52:12.250Z,50.49
2023-01-11T03:53:12.217Z,52.51
2023-01-11T03:54:12.249Z,50.82
2023-01-11T03:55:12.199Z,51.69
2023-01-11T03:56:12.236Z,56.68
2023-01-11T03:57:12.179Z,54.68
2023-01-11T03:58:12.160Z,58.17
2023-01-11T03:59:12.153Z,59.82
2023-01-11T04:00:12.157Z,56.78
2023-01-11T04:01:12.223Z,52.77
2023-01-11T04:02:12.127Z,51.95
2023-01-11T04:03:12.115Z,56.96
2023-01-11T04:04:12.119Z,54.39
2023-01-11T04:05:12.093Z,58.10
2023-01-11T04:06:12.101Z,53.03
2023-01-11T04:07:12.101Z,52.81
2023-01-11T04:08:12.072Z,56.32
2023-01-11T04:09:12.063Z,56.39
2023-01-11T04:10:12.062Z,55.86
2023-01-11T04:11:12.040Z,62.59
2023-01-11T04:12:12.062Z,63.07
2023-01-11T04:13:12.035Z,53.25
2023-01-11T04:14:12.062Z,53.88
2023-01-11T04:15:12.007Z,61.85
2023-01-11T04:16:12.057Z,57.61
2023-01-11T04:17:11.991Z,64.87
2023-01-11T04:18:11.983Z,67.02
2023-01-11T04:19:11.981Z,57.09
2023-01-11T04:20:11.965Z,58.60
2023-01-11T04:21:11.956Z,61.97
2023-01-11T04:22:11.945Z,57.65
2023-01-11T04:23:11.934Z,56.28
2023-01-11T04:24:11.941Z,55.53
2023-01-11T04:25:11.940Z,54.33
2023-01-11T04:26:11.901Z,58.19
2023-01-11T04:27:11.890Z,57.79
2023-01-11T04:28:11.878Z,54.33
2023-01-11T04:29:11.880Z,66.12
2023-01-11T04:30:11.895Z,63.93
2023-01-11T04:31:11.914Z,59.02
2023-01-11T04:32:11.828Z,53.83
2023-01-11T04:33:11.834Z,57.31
2023-01-11T04:34:11.857Z,55.47
2023-01-11T04:35:11.829Z,64.51
2023-01-11T04:36:11.815Z,65.49
2023-01-11T04:37:11.816Z,66.25
2023-01-11T04:38:11.808Z,57.02
2023-01-11T04:39:11.785Z,58.12
2023-01-11T04:40:11.784Z,55.65
2023-01-11T04:41:11.748Z,52.80
2023-01-11T04:42:11.738Z,55.29
2023-01-11T04:43:11.732Z,57.21
2023-01-11T04:44:11.724Z,59.42
2023-01-11T04:45:11.733Z,54.61
2023-01-11T04:46:11.720Z,56.67
2023-01-11T04:47:11.693Z,56.76
2023-01-11T04:48:11.701Z,57.09
2023-01-11T04:49:11.701Z,62.09
2023-01-11T04:50:11.727Z,57.67
2023-01-11T04:51:11.669Z,63.27
2023-01-11T04:52:11.657Z,56.44
2023-01-11T04:53:11.662Z,58.14
2023-01-11T04:54:11.653Z,55.39
2023-01-11T04:55:11.622Z,60.99
2023-01-11T04:56:11.599Z,61.68
2023-01-11T04:57:11.613Z,57.05
2023-01-11T04:58:11.606Z,57.37
2023-01-11T04:59:11.601Z,58.44
2023-01-11T05:00:11.570Z,62.43
2023-01-11T05:01:11.621Z,58.73
2023-01-11T05:02:11.555Z,58.28
2023-01-11T05:03:11.533Z,55.17
2023-01-11T05:04:13.484Z,59.30
2023-01-11T05:05:12.556Z,57.31
2023-01-11T05:06:11.511Z,55.15
2023-01-11T05:07:11.501Z,56.24
2023-01-11T05:08:11.506Z,58.12
2023-01-11T05:09:11.484Z,60.20
2023-01-11T05:10:11.493Z,59.26
2023-01-11T05:11:11.469Z,67.89
2023-01-11T05:12:11.450Z,57.83
2023-01-11T05:13:11.440Z,57.29
2023-01-11T05:14:11.448Z,60.63
2023-01-11T05:15:11.443Z,59.37
2023-01-11T05:16:11.427Z,56.58
2023-01-11T05:17:11.416Z,60.50
2023-01-11T05:18:11.389Z,58.85
2023-01-11T05:19:11.379Z,56.46
2023-01-11T05:20:11.380Z,55.32
2023-01-11T05:21:11.361Z,64.53
2023-01-11T05:22:11.356Z,56.03
2023-01-11T05:23:11.335Z,58.90
2023-01-11T05:24:11.354Z,57.96
2023-01-11T05:25:11.353Z,59.32
2023-01-11T05:26:11.308Z,63.89
2023-01-11T05:27:11.366Z,57.20
2023-01-11T05:28:11.303Z,58.58
2023-01-11T05:29:11.283Z,66.34
2023-01-11T05:30:11.257Z,58.95
2023-01-11T05:31:11.262Z,57.78
2023-01-11T05:32:11.285Z,59.36
2023-01-11T05:33:11.262Z,59.94
2023-01-11T05:34:11.235Z,57.45
2023-01-11T05:35:11.210Z,57.81
2023-01-11T05:36:11.239Z,59.23
2023-01-11T05:37:11.235Z,64.05
2023-01-11T05:38:11.213Z,64.77
2023-01-11T05:39:11.182Z,61.16
2023-01-11T05:40:11.174Z,60.65
2023-01-11T05:41:11.183Z,58.48
2023-01-11T05:42:11.166Z,60.17
2023-01-11T05:43:11.176Z,59.65
2023-01-11T05:44:11.137Z,59.42
2023-01-11T05:45:11.124Z,60.70
2023-01-11T05:46:12.193Z,60.30
2023-01-11T05:47:11.121Z,60.83
2023-01-11T05:48:11.104Z,60.28
2023-01-11T05:49:11.095Z,59.45
2023-01-11T05:50:11.073Z,58.61
2023-01-11T05:51:11.078Z,58.10
2023-01-11T05:52:11.086Z,60.22
2023-01-11T05:53:11.052Z,58.66
2023-01-11T05:54:11.069Z,60.87
2023-01-11T05:55:11.024Z,58.51
2023-01-11T05:56:12.029Z,62.13
2023-01-11T05:57:11.009Z,59.51
2023-01-11T05:58:11.011Z,59.62
2023-01-11T05:59:11.007Z,60.21
2023-01-11T06:00:11.008Z,64.31
2023-01-11T06:01:11.001Z,58.08
2023-01-11T06:02:11.080Z,60.63
2023-01-11T06:03:11.011Z,63.07
2023-01-11T06:04:10.948Z,63.30
2023-01-11T06:05:10.985Z,60.72
2023-01-11T06:06:10.928Z,60.30
2023-01-11T06:07:10.930Z,67.82
2023-01-11T06:08:10.923Z,59.24
2023-01-11T06:09:10.909Z,62.02
2023-01-11T06:10:10.897Z,60.13
2023-01-11T06:11:10.881Z,58.55
2023-01-11T06:12:10.861Z,58.51
2023-01-11T06:13:10.868Z,60.92
2023-01-11T06:14:10.869Z,60.77
2023-01-11T06:15:10.841Z,59.99
2023-01-11T06:16:10.840Z,59.81
2023-01-11T06:17:10.817Z,60.31
2023-01-11T06:18:10.809Z,59.66
2023-01-11T06:19:10.822Z,62.79
2023-01-11T06:20:10.777Z,62.28
2023-01-11T06:21:10.775Z,60.83
2023-01-11T06:22:11.791Z,61.07
2023-01-11T06:23:10.751Z,58.67
2023-01-11T06:24:10.784Z,60.63
2023-01-11T06:25:10.780Z,58.48
2023-01-11T06:26:10.754Z,65.14
2023-01-11T06:27:10.719Z,61.79
2023-01-11T06:28:10.719Z,65.98
2023-01-11T06:29:10.694Z,64.05
2023-01-11T06:30:10.681Z,61.57
2023-01-11T06:31:10.743Z,61.59
2023-01-11T06:32:10.695Z,62.13
2023-01-11T06:33:10.663Z,64.94
2023-01-11T06:34:10.641Z,61.21
2023-01-11T06:35:10.655Z,61.20
2023-01-11T06:36:10.649Z,62.08
2023-01-11T06:37:10.653Z,60.91
2023-01-11T06:38:10.594Z,60.99
2023-01-11T06:39:10.642Z,59.50
2023-01-11T06:40:10.663Z,60.43
2023-01-11T06:41:10.611Z,59.26
2023-01-11T06:42:10.568Z,58.81
2023-01-11T06:43:10.566Z,60.97
2023-01-11T06:44:10.583Z,60.47
2023-01-11T06:45:10.545Z,59.33
2023-01-11T06:46:10.602Z,69.65
2023-01-11T06:47:10.518Z,59.82
2023-01-11T06:48:10.513Z,58.68
2023-01-11T06:49:10.521Z,59.18
2023-01-11T06:50:10.491Z,60.50
2023-01-11T06:51:10.500Z,63.07
2023-01-11T06:52:10.490Z,58.88
2023-01-11T06:53:10.466Z,60.56
2023-01-11T06:54:10.454Z,59.91
2023-01-11T06:55:10.450Z,60.22
2023-01-11T06:56:10.439Z,59.63
2023-01-11T06:57:10.459Z,60.10
2023-01-11T06:58:10.414Z,59.39
2023-01-11T06:59:10.423Z,60.78
2023-01-11T07:00:10.402Z,64.64
2023-01-11T07:01:10.473Z,60.25
2023-01-11T07:02:10.409Z,58.55
2023-01-11T07:03:10.370Z,66.96
2023-01-11T07:04:10.357Z,60.83
2023-01-11T07:05:10.361Z,64.78
2023-01-11T07:06:10.357Z,61.91
2023-01-11T07:07:10.350Z,59.78
2023-01-11T07:08:10.308Z,60.76
2023-01-11T07:09:10.303Z,64.66
2023-01-11T07:10:10.293Z,60.17
2023-01-11T07:11:10.377Z,59.87
2023-01-11T07:12:10.331Z,58.25
2023-01-11T07:13:10.268Z,60.44
2023-01-11T07:14:10.259Z,60.07
2023-01-11T07:15:10.270Z,61.64
2023-01-11T07:16:10.382Z,59.48
2023-01-11T07:17:10.246Z,60.03
2023-01-11T07:18:10.229Z,59.55
2023-01-11T07:19:10.236Z,60.10
2023-01-11T07:20:10.199Z,58.87
2023-01-11T07:21:10.230Z,66.79
2023-01-11T07:22:10.182Z,62.84
2023-01-11T07:23:10.183Z,59.62
2023-01-11T07:24:10.167Z,59.42
2023-01-11T07:25:10.165Z,60.12
2023-01-11T07:26:10.172Z,58.70
2023-01-11T07:27:10.161Z,59.12
2023-01-11T07:28:10.127Z,60.81
2023-01-11T07:29:10.115Z,60.66
2023-01-11T07:30:10.143Z,57.24
2023-01-11T07:31:10.166Z,61.23
2023-01-11T07:32:10.123Z,65.12
2023-01-11T07:33:10.085Z,57.76
2023-01-11T07:34:41.968Z,57.72
2023-01-11T07:35:10.066Z,59.57
2023-01-11T07:36:10.064Z,60.14
2023-01-11T07:37:29.146Z,62.55
2023-01-11T07:38:11.068Z,56.98
2023-01-11T07:39:10.023Z,60.40
2023-01-11T07:40:10.019Z,60.01
2023-01-11T07:41:10.005Z,60.30
2023-01-11T07:42:10.986Z,59.59
2023-01-11T07:43:10.016Z,60.25
2023-01-11T07:44:09.985Z,61.33
2023-01-11T07:45:09.969Z,62.64
2023-01-11T07:46:09.996Z,60.98
2023-01-11T07:47:09.977Z,59.75
2023-01-11T07:48:09.940Z,59.95
2023-01-11T07:49:09.946Z,60.06
2023-01-11T07:50:09.912Z,59.91
2023-01-11T07:51:09.940Z,58.52
2023-01-11T07:52:09.912Z,59.69
2023-01-11T07:53:09.884Z,61.20
2023-01-11T07:54:09.874Z,58.24
2023-01-11T07:55:09.895Z,61.57
2023-01-11T07:56:09.880Z,64.61
2023-01-11T07:57:09.839Z,61.02
2023-01-11T07:58:09.871Z,60.80
2023-01-11T07:59:09.857Z,59.01
2023-01-11T08:00:09.815Z,58.45
2023-01-11T08:01:10.804Z,59.35
2023-01-11T08:02:09.813Z,67.06
2023-01-11T08:03:10.028Z,58.55
2023-01-11T08:04:09.778Z,64.17
2023-01-11T08:05:09.768Z,59.07
2023-01-11T08:06:09.770Z,60.28
2023-01-11T08:07:09.766Z,59.51
2023-01-11T08:08:09.725Z,60.82
2023-01-11T08:09:09.713Z,60.97
2023-01-11T08:10:09.707Z,59.71
2023-01-11T08:11:09.717Z,59.77
2023-01-11T08:12:09.695Z,57.93
2023-01-11T08:13:09.732Z,58.66
2023-01-11T08:14:09.676Z,57.94
2023-01-11T08:15:09.675Z,62.30
2023-01-11T08:16:09.706Z,63.26
2023-01-11T08:17:09.676Z,58.72
2023-01-11T08:18:09.676Z,59.41
2023-01-11T08:19:09.645Z,59.24
2023-01-11T08:20:09.626Z,65.91
2023-01-11T08:21:09.614Z,61.20
2023-01-11T08:22:10.600Z,61.39
2023-01-11T08:23:09.618Z,60.85
2023-01-11T08:24:09.604Z,62.80
2023-01-11T08:25:09.583Z,62.86
2023-01-11T08:26:09.604Z,59.12
2023-01-11T08:27:09.616Z,59.88
2023-01-11T08:28:09.543Z,59.69
2023-01-11T08:29:10.555Z,59.89
2023-01-11T08:30:09.538Z,59.41
2023-01-11T08:31:09.606Z,58.21
2023-01-11T08:32:09.536Z,60.46
2023-01-11T08:33:09.516Z,59.96
2023-01-11T08:34:09.474Z,61.79
2023-01-11T08:35:09.469Z,64.21
2023-01-11T08:36:10.198Z,59.22
2023-01-11T08:37:09.472Z,61.08
2023-01-11T08:38:09.494Z,60.36
2023-01-11T08:39:09.446Z,61.54
2023-01-11T08:40:09.448Z,60.91
2023-01-11T08:41:09.415Z,59.87
2023-01-11T08:42:09.425Z,59.80
2023-01-11T08:43:09.383Z,59.13
2023-01-11T08:44:09.378Z,58.52
2023-01-11T08:45:09.388Z,59.90
2023-01-11T08:46:09.458Z,59.47
2023-01-11T08:47:09.378Z,59.24
2023-01-11T08:48:09.342Z,60.59
2023-01-11T08:49:09.342Z,60.32
2023-01-11T08:50:09.319Z,59.52
2023-01-11T08:51:09.320Z,62.04
2023-01-11T08:52:09.329Z,59.33
2023-01-11T08:53:10.933Z,60.92
2023-01-11T08:54:09.274Z,65.84
2023-01-11T08:55:09.280Z,63.83
2023-01-11T08:56:09.277Z,60.81
2023-01-11T08:57:09.251Z,60.27
2023-01-11T08:58:09.274Z,62.39
2023-01-11T08:59:09.226Z,64.20
2023-01-11T09:00:09.229Z,58.29
2023-01-11T09:01:09.220Z,60.82
2023-01-11T09:02:09.211Z,60.81
2023-01-11T09:03:09.218Z,60.46
2023-01-11T09:04:19.406Z,60.40
2023-01-11T09:05:11.175Z,58.91
2023-01-11T09:06:09.240Z,62.46
2023-01-11T09:07:09.147Z,58.64
2023-01-11T09:08:09.163Z,58.62
2023-01-11T09:09:09.143Z,60.61
2023-01-11T09:10:09.121Z,59.78
2023-01-11T09:11:09.136Z,60.16
2023-01-11T09:12:09.116Z,59.03
2023-01-11T09:13:09.090Z,59.88
2023-01-11T09:14:09.077Z,62.20
2023-01-11T09:15:09.082Z,59.81
2023-01-11T09:16:09.134Z,60.62
2023-01-11T09:17:09.057Z,58.38
2023-01-11T09:18:09.058Z,59.70
2023-01-11T09:19:09.048Z,59.26
2023-01-11T09:20:09.032Z,62.29
2023-01-11T09:21:09.023Z,60.57
2023-01-11T09:22:09.019Z,63.25
2023-01-11T09:23:10.014Z,61.75
2023-01-11T09:24:08.978Z,68.11
2023-01-11T09:25:08.976Z,60.26
2023-01-11T09:26:08.972Z,60.46
2023-01-11T09:27:09.062Z,62.02
2023-01-11T09:28:08.978Z,60.04
2023-01-11T09:29:08.986Z,62.17
2023-01-11T09:30:08.931Z,59.60
2023-01-11T09:31:08.992Z,57.84
2023-01-11T09:32:08.900Z,59.47
2023-01-11T09:33:08.899Z,61.32
2023-01-11T09:34:08.889Z,59.67
2023-01-11T09:35:08.882Z,60.63
2023-01-11T09:36:08.916Z,59.01
2023-01-11T09:37:08.870Z,66.51
2023-01-11T09:38:08.857Z,58.55
2023-01-11T09:39:08.843Z,60.48
2023-01-11T09:40:08.828Z,59.30
2023-01-11T09:41:08.817Z,58.38
2023-01-11T09:42:08.853Z,60.06
2023-01-11T09:43:08.804Z,66.85
2023-01-11T09:44:08.807Z,60.53
2023-01-11T09:45:08.807Z,60.89
2023-01-11T09:46:08.886Z,63.10
2023-01-11T09:47:09.807Z,59.64
2023-01-11T09:48:08.750Z,59.43
2023-01-11T09:49:08.756Z,59.00
2023-01-11T09:50:08.744Z,58.21
2023-01-11T09:51:08.727Z,60.31
2023-01-11T09:52:08.719Z,59.19
2023-01-11T09:53:08.703Z,63.16
2023-01-11T09:54:08.708Z,60.86
2023-01-11T09:55:08.672Z,60.91
2023-01-11T09:56:08.692Z,59.60
2023-01-11T09:57:08.669Z,59.66
2023-01-11T09:58:08.650Z,58.84
2023-01-11T09:59:08.664Z,59.77
2023-01-11T10:00:08.679Z,58.30
2023-01-11T10:01:08.683Z,61.18
2023-01-11T10:02:08.609Z,61.43
2023-01-11T10:03:08.615Z,59.27
2023-01-11T10:04:08.631Z,59.32
2023-01-11T10:05:08.636Z,59.60
2023-01-11T10:06:08.594Z,58.60
2023-01-11T10:07:08.587Z,60.85
2023-01-11T10:18:23.318Z,62.40
2023-01-11T10:18:28.618Z,59.49
2023-01-11T10:18:29.665Z,60.53
2023-01-11T10:18:33.480Z,59.25
2023-01-11T10:18:35.339Z,59.23
2023-01-11T10:19:33.510Z,59.18
2023-01-11T10:20:10.514Z,66.90
2023-01-11T10:21:08.422Z,58.14
2023-01-11T10:22:08.418Z,58.94
2023-01-11T10:23:08.453Z,64.99
2023-01-11T10:24:08.398Z,66.16
2023-01-11T10:25:09.140Z,59.57
2023-01-11T10:26:08.395Z,57.90
2023-01-11T10:27:08.535Z,60.70
2023-01-11T10:28:08.392Z,60.95
2023-01-11T10:29:08.352Z,64.68
2023-01-11T10:30:08.341Z,66.11
2023-01-11T10:31:08.482Z,58.95
2023-01-11T10:32:08.351Z,60.39
2023-01-11T10:33:08.314Z,68.01
2023-01-11T10:34:08.300Z,60.95
2023-01-11T10:35:08.301Z,59.52
2023-01-11T10:36:08.292Z,66.21
2023-01-11T10:37:08.287Z,60.76
2023-01-11T10:38:08.263Z,59.29
2023-01-11T10:39:08.255Z,60.78
2023-01-11T10:40:08.259Z,58.50
2023-01-11T10:41:08.292Z,60.03
2023-01-11T10:42:08.227Z,58.16
2023-01-11T10:43:08.230Z,60.54
2023-01-11T10:44:08.200Z,62.12
2023-01-11T10:45:08.204Z,58.63
2023-01-11T10:46:08.234Z,59.36
2023-01-11T10:47:08.177Z,61.86
2023-01-11T10:48:08.176Z,58.38
2023-01-11T10:49:08.194Z,61.14
2023-01-11T10:50:08.134Z,58.74
2023-01-11T10:51:08.139Z,58.47
2023-01-11T10:52:08.129Z,60.59
2023-01-11T10:53:08.132Z,60.16
2023-01-11T10:54:08.121Z,66.84
2023-01-11T10:55:08.105Z,65.35
2023-01-11T10:56:08.091Z,59.43
2023-01-11T10:57:08.215Z,59.63
2023-01-11T10:58:09.068Z,60.93
2023-01-11T10:59:08.067Z,63.86
2023-01-11T11:00:08.035Z,67.00
2023-01-11T11:01:08.139Z,60.73
2023-01-11T11:02:08.089Z,58.12
2023-01-11T11:03:08.037Z,60.86
2023-01-11T11:04:08.039Z,59.39
2023-01-11T11:05:08.003Z,59.33
2023-01-11T11:06:07.995Z,58.49
2023-01-11T11:07:07.968Z,58.86
2023-01-11T11:08:07.986Z,62.60
2023-01-11T11:09:07.963Z,61.99
2023-01-11T11:10:07.960Z,59.05
2023-01-11T11:11:07.943Z,60.17
2023-01-11T11:12:07.923Z,58.51
2023-01-11T11:13:07.939Z,58.62
2023-01-11T11:14:07.906Z,58.60
2023-01-11T11:15:07.896Z,59.62
2023-01-11T11:16:07.940Z,58.12
2023-01-11T11:17:07.888Z,66.48
2023-01-11T11:18:07.868Z,59.23
2023-01-11T11:19:07.885Z,58.90
2023-01-11T11:20:07.846Z,59.14
2023-01-11T11:21:07.854Z,58.48
2023-01-11T11:22:07.843Z,61.11
2023-01-11T11:23:07.816Z,61.91
2023-01-11T11:24:07.807Z,63.70
2023-01-11T11:25:07.815Z,56.21
2023-01-11T11:26:07.807Z,60.08
2023-01-11T11:27:07.840Z,60.71
2023-01-11T11:28:07.783Z,58.66
2023-01-11T11:29:07.776Z,58.58
2023-01-11T11:30:07.757Z,63.93
2023-01-11T11:31:07.766Z,61.05
2023-01-11T11:32:07.738Z,59.66
2023-01-11T11:33:07.740Z,57.22
2023-01-11T11:34:07.707Z,59.41
2023-01-11T11:35:07.745Z,59.48
2023-01-11T11:36:07.716Z,60.26
2023-01-11T11:37:08.685Z,59.11
2023-01-11T11:38:07.685Z,66.83
2023-01-11T11:39:07.688Z,61.03
2023-01-11T11:40:07.656Z,59.96
2023-01-11T11:41:07.664Z,60.45
2023-01-11T11:42:07.657Z,58.35
2023-01-11T11:43:07.662Z,60.13
2023-01-11T11:44:07.620Z,61.84
2023-01-11T11:45:07.639Z,61.41
2023-01-11T11:46:07.698Z,58.99
2023-01-11T11:47:07.601Z,58.07
2023-01-11T11:48:07.581Z,61.16
2023-01-11T11:49:07.593Z,66.76
2023-01-11T11:50:07.572Z,67.91
2023-01-11T11:51:07.570Z,59.63
2023-01-11T11:52:07.533Z,65.09
2023-01-11T11:53:07.530Z,61.11
2023-01-11T11:54:07.533Z,58.44
2023-01-11T11:55:07.528Z,65.77
2023-01-11T11:56:07.535Z,61.58
2023-01-11T11:57:07.537Z,59.12
2023-01-11T11:58:07.480Z,58.78
2023-01-11T11:59:07.469Z,58.16
2023-01-11T12:00:07.463Z,61.34
2023-01-11T12:01:07.455Z,57.18
2023-01-11T12:02:07.449Z,59.87
2023-01-11T12:03:07.432Z,67.47
2023-01-11T12:04:07.443Z,59.92
2023-01-11T12:05:07.575Z,61.56
2023-01-11T12:06:07.392Z,59.54
2023-01-11T12:07:07.412Z,57.75
2023-01-11T12:08:07.390Z,62.33
2023-01-11T12:09:07.379Z,61.62
2023-01-11T12:10:07.379Z,59.44
2023-01-11T12:11:07.360Z,60.41
2023-01-11T12:12:07.341Z,62.16
2023-01-11T12:13:07.339Z,59.42
2023-01-11T12:14:07.335Z,59.33
2023-01-11T12:15:07.304Z,64.68
2023-01-11T12:16:07.362Z,59.29
2023-01-11T12:17:07.306Z,59.74
2023-01-11T12:18:07.330Z,58.41
2023-01-11T12:19:07.277Z,58.05
2023-01-11T12:20:07.260Z,63.55
2023-01-11T12:21:07.256Z,72.94
2023-01-11T12:22:07.248Z,64.34
2023-01-11T12:23:07.241Z,61.48
2023-01-11T12:24:07.255Z,61.80
2023-01-11T12:25:07.260Z,59.86
2023-01-11T12:26:07.224Z,61.83
2023-01-11T12:27:07.222Z,59.96
2023-01-11T12:28:07.195Z,59.01
2023-01-11T12:29:07.189Z,60.25
2023-01-11T12:30:07.192Z,59.29
2023-01-11T12:31:07.159Z,59.65
2023-01-11T12:32:07.151Z,58.60
2023-01-11T12:33:07.134Z,59.31
2023-01-11T12:34:07.177Z,60.79
2023-01-11T12:35:07.134Z,59.81
2023-01-11T12:36:07.131Z,58.75
2023-01-11T12:37:07.115Z,60.42
2023-01-11T12:38:07.091Z,58.07
2023-01-11T12:39:07.102Z,60.90
2023-01-11T12:40:07.098Z,58.89
2023-01-11T12:41:08.628Z,59.09
2023-01-11T12:42:08.068Z,59.15
2023-01-11T12:43:07.095Z,63.37
2023-01-11T12:44:07.063Z,59.34
2023-01-11T12:45:07.019Z,59.75
2023-01-11T12:46:07.067Z,59.48
2023-01-11T12:47:07.052Z,62.43
2023-01-11T12:48:06.995Z,59.50
2023-01-11T12:49:06.997Z,58.83
2023-01-11T12:50:06.988Z,60.25
2023-01-11T12:51:06.985Z,58.01
2023-01-11T12:52:06.996Z,59.19
2023-01-11T12:53:07.043Z,59.31
2023-01-11T12:54:06.969Z,58.17
2023-01-11T12:55:06.938Z,62.23
2023-01-11T12:56:06.920Z,61.09
2023-01-11T12:57:06.930Z,59.16
2023-01-11T12:58:06.907Z,59.02